sensor_id;sensor_type;location;lat;lon;timestamp;P1;durP1;ratioP1;P2;durP2;ratioP2
20751;SDS011;10536;51.582;5.016;2022-12-10T00:00:22;142.18;;;48.05;;
20751;SDS011;10536;51.582;5.016;2022-12-10T00:05:26;146.47;;;46.07;;
20751;SDS011;10536;51.582;5.016;2022-12-10T00:10:27;144.98;;;49.05;;
20751;SDS011;10536;51.582;5.016;2022-12-10T00:15:27;151.37;;;47.90;;
20751;SDS011;10536;51.582;5.016;2022-12-10T00:20:28;144.47;;;47.53;;
20751;SDS011;10536;51.582;5.016;2022-12-10T00:25:28;145.53;;;50.13;;
20751;SDS011;10536;51.582;5.016;2022-12-10T00:30:32;124.22;;;46.00;;
20751;SDS011;10536;51.582;5.016;2022-12-10T00:35:39;148.60;;;46.78;;
20751;SDS011;10536;51.582;5.016;2022-12-10T00:40:40;152.30;;;48.65;;
20751;SDS011;10536;51.582;5.016;2022-12-10T00:45:40;176.32;;;53.40;;
20751;SDS011;10536;51.582;5.016;2022-12-10T00:50:40;187.95;;;51.55;;
20751;SDS011;10536;51.582;5.016;2022-12-10T00:55:41;169.57;;;51.03;;
20751;SDS011;10536;51.582;5.016;2022-12-10T01:00:41;163.03;;;50.47;;
20751;SDS011;10536;51.582;5.016;2022-12-10T01:05:42;200.73;;;58.92;;
20751;SDS011;10536;51.582;5.016;2022-12-10T01:10:42;176.32;;;59.75;;
20751;SDS011;10536;51.582;5.016;2022-12-10T01:15:43;166.35;;;52.65;;
20751;SDS011;10536;51.582;5.016;2022-12-10T01:20:43;162.65;;;53.88;;
20751;SDS011;10536;51.582;5.016;2022-12-10T01:25:43;152.83;;;48.40;;
20751;SDS011;10536;51.582;5.016;2022-12-10T01:30:44;151.07;;;50.50;;
20751;SDS011;10536;51.582;5.016;2022-12-10T01:35:44;159.73;;;56.58;;
20751;SDS011;10536;51.582;5.016;2022-12-10T01:40:44;158.00;;;53.80;;
20751;SDS011;10536;51.582;5.016;2022-12-10T01:45:45;151.73;;;47.90;;
20751;SDS011;10536;51.582;5.016;2022-12-10T01:50:46;145.48;;;48.80;;
20751;SDS011;10536;51.582;5.016;2022-12-10T01:55:50;141.50;;;46.58;;
20751;SDS011;10536;51.582;5.016;2022-12-10T02:12:12;158.13;;;47.10;;
20751;SDS011;10536;51.582;5.016;2022-12-10T02:16:55;149.18;;;46.80;;
20751;SDS011;10536;51.582;5.016;2022-12-10T02:21:58;147.98;;;46.83;;
20751;SDS011;10536;51.582;5.016;2022-12-10T02:32:31;145.77;;;46.20;;
20751;SDS011;10536;51.582;5.016;2022-12-10T02:37:38;165.98;;;48.75;;
20751;SDS011;10536;51.582;5.016;2022-12-10T02:42:45;152.75;;;48.97;;
20751;SDS011;10536;51.582;5.016;2022-12-10T02:47:48;145.70;;;45.45;;
20751;SDS011;10536;51.582;5.016;2022-12-10T02:52:49;154.02;;;45.67;;
20751;SDS011;10536;51.582;5.016;2022-12-10T03:08:31;163.32;;;47.83;;
20751;SDS011;10536;51.582;5.016;2022-12-10T03:13:43;162.95;;;49.38;;
20751;SDS011;10536;51.582;5.016;2022-12-10T03:18:52;167.68;;;45.42;;
20751;SDS011;10536;51.582;5.016;2022-12-10T03:23:56;170.98;;;47.80;;
20751;SDS011;10536;51.582;5.016;2022-12-10T03:28:58;165.80;;;49.05;;
20751;SDS011;10536;51.582;5.016;2022-12-10T03:34:06;197.50;;;50.10;;
20751;SDS011;10536;51.582;5.016;2022-12-10T03:39:09;186.50;;;50.60;;
20751;SDS011;10536;51.582;5.016;2022-12-10T03:44:10;193.38;;;51.78;;
20751;SDS011;10536;51.582;5.016;2022-12-10T03:49:11;196.73;;;50.97;;
20751;SDS011;10536;51.582;5.016;2022-12-10T03:54:12;204.52;;;54.00;;
20751;SDS011;10536;51.582;5.016;2022-12-10T03:59:12;243.85;;;56.10;;
20751;SDS011;10536;51.582;5.016;2022-12-10T04:04:13;250.13;;;56.35;;
20751;SDS011;10536;51.582;5.016;2022-12-10T04:09:14;310.00;;;55.63;;
20751;SDS011;10536;51.582;5.016;2022-12-10T04:14:15;245.60;;;52.13;;
20751;SDS011;10536;51.582;5.016;2022-12-10T04:19:34;260.23;;;51.47;;
20751;SDS011;10536;51.582;5.016;2022-12-10T04:24:35;232.65;;;52.55;;
20751;SDS011;10536;51.582;5.016;2022-12-10T04:29:56;220.93;;;52.45;;
20751;SDS011;10536;51.582;5.016;2022-12-10T04:34:57;217.90;;;47.90;;
20751;SDS011;10536;51.582;5.016;2022-12-10T04:39:58;223.02;;;48.60;;
20751;SDS011;10536;51.582;5.016;2022-12-10T04:44:58;243.02;;;50.30;;
20751;SDS011;10536;51.582;5.016;2022-12-10T04:49:59;235.30;;;48.63;;
20751;SDS011;10536;51.582;5.016;2022-12-10T04:54:59;232.45;;;48.33;;
20751;SDS011;10536;51.582;5.016;2022-12-10T04:59:59;239.18;;;48.45;;
20751;SDS011;10536;51.582;5.016;2022-12-10T05:05:00;264.42;;;49.05;;
20751;SDS011;10536;51.582;5.016;2022-12-10T05:10:00;250.00;;;49.10;;
20751;SDS011;10536;51.582;5.016;2022-12-10T05:15:00;225.17;;;48.90;;
20751;SDS011;10536;51.582;5.016;2022-12-10T05:20:01;240.77;;;50.72;;
20751;SDS011;10536;51.582;5.016;2022-12-10T05:25:02;268.70;;;49.25;;
20751;SDS011;10536;51.582;5.016;2022-12-10T05:30:03;242.10;;;44.78;;
20751;SDS011;10536;51.582;5.016;2022-12-10T05:35:04;229.68;;;43.13;;
20751;SDS011;10536;51.582;5.016;2022-12-10T05:40:05;278.73;;;43.70;;
20751;SDS011;10536;51.582;5.016;2022-12-10T05:45:06;244.50;;;48.30;;
20751;SDS011;10536;51.582;5.016;2022-12-10T05:50:07;228.77;;;42.42;;
20751;SDS011;10536;51.582;5.016;2022-12-10T05:55:08;223.63;;;46.63;;
20751;SDS011;10536;51.582;5.016;2022-12-10T06:00:09;246.57;;;43.45;;
20751;SDS011;10536;51.582;5.016;2022-12-10T06:05:10;289.75;;;50.20;;
20751;SDS011;10536;51.582;5.016;2022-12-10T06:10:10;237.10;;;37.53;;
20751;SDS011;10536;51.582;5.016;2022-12-10T06:15:11;219.15;;;43.88;;
20751;SDS011;10536;51.582;5.016;2022-12-10T06:20:12;180.88;;;40.00;;
20751;SDS011;10536;51.582;5.016;2022-12-10T06:25:12;220.73;;;42.55;;
20751;SDS011;10536;51.582;5.016;2022-12-10T06:30:13;265.40;;;39.38;;
20751;SDS011;10536;51.582;5.016;2022-12-10T06:35:13;225.68;;;41.00;;
20751;SDS011;10536;51.582;5.016;2022-12-10T06:40:14;264.05;;;40.45;;
20751;SDS011;10536;51.582;5.016;2022-12-10T06:45:14;262.92;;;44.35;;
20751;SDS011;10536;51.582;5.016;2022-12-10T06:50:14;269.73;;;40.42;;
20751;SDS011;10536;51.582;5.016;2022-12-10T06:55:15;201.52;;;42.00;;
20751;SDS011;10536;51.582;5.016;2022-12-10T07:00:15;280.95;;;41.95;;
20751;SDS011;10536;51.582;5.016;2022-12-10T07:05:16;180.93;;;41.45;;
20751;SDS011;10536;51.582;5.016;2022-12-10T07:10:16;204.50;;;42.97;;
20751;SDS011;10536;51.582;5.016;2022-12-10T07:15:17;248.73;;;41.75;;
20751;SDS011;10536;51.582;5.016;2022-12-10T07:20:17;243.07;;;42.72;;
20751;SDS011;10536;51.582;5.016;2022-12-10T07:25:18;267.63;;;45.63;;
20751;SDS011;10536;51.582;5.016;2022-12-10T07:30:18;246.83;;;44.27;;
20751;SDS011;10536;51.582;5.016;2022-12-10T07:35:19;232.10;;;42.90;;
20751;SDS011;10536;51.582;5.016;2022-12-10T07:40:19;264.47;;;45.73;;
20751;SDS011;10536;51.582;5.016;2022-12-10T07:45:20;223.90;;;46.85;;
20751;SDS011;10536;51.582;5.016;2022-12-10T07:50:20;299.27;;;49.63;;
20751;SDS011;10536;51.582;5.016;2022-12-10T07:55:21;272.93;;;45.67;;
20751;SDS011;10536;51.582;5.016;2022-12-10T08:00:21;237.57;;;45.28;;
20751;SDS011;10536;51.582;5.016;2022-12-10T08:05:21;224.02;;;45.10;;
20751;SDS011;10536;51.582;5.016;2022-12-10T08:10:22;227.88;;;51.70;;
20751;SDS011;10536;51.582;5.016;2022-12-10T08:15:23;252.55;;;49.70;;
20751;SDS011;10536;51.582;5.016;2022-12-10T08:20:23;268.63;;;62.50;;
20751;SDS011;10536;51.582;5.016;2022-12-10T08:25:24;229.52;;;53.50;;
20751;SDS011;10536;51.582;5.016;2022-12-10T08:30:25;227.60;;;47.47;;
20751;SDS011;10536;51.582;5.016;2022-12-10T08:35:25;210.63;;;42.93;;
20751;SDS011;10536;51.582;5.016;2022-12-10T08:40:25;195.07;;;43.45;;
20751;SDS011;10536;51.582;5.016;2022-12-10T08:45:26;179.80;;;43.90;;
20751;SDS011;10536;51.582;5.016;2022-12-10T08:50:26;222.07;;;40.63;;
20751;SDS011;10536;51.582;5.016;2022-12-10T08:55:27;226.85;;;48.92;;
20751;SDS011;10536;51.582;5.016;2022-12-10T09:00:28;198.45;;;43.67;;
20751;SDS011;10536;51.582;5.016;2022-12-10T09:05:28;185.27;;;45.08;;
20751;SDS011;10536;51.582;5.016;2022-12-10T09:10:29;204.77;;;50.00;;
20751;SDS011;10536;51.582;5.016;2022-12-10T09:15:29;225.88;;;39.53;;
20751;SDS011;10536;51.582;5.016;2022-12-10T09:20:30;206.20;;;38.63;;
20751;SDS011;10536;51.582;5.016;2022-12-10T09:25:31;172.95;;;41.88;;
20751;SDS011;10536;51.582;5.016;2022-12-10T09:30:31;221.35;;;44.22;;
20751;SDS011;10536;51.582;5.016;2022-12-10T09:35:32;211.57;;;39.90;;
20751;SDS011;10536;51.582;5.016;2022-12-10T09:40:35;171.13;;;39.42;;
